Weather at Copenhagen Roskilde Airport

Public forecast

Using degrees Celsius for public forecast. Weather courtesy of forecast.io.

Current aviation weather report (METAR) for Copenhagen Roskilde Airport

Retrieved 2021/10/16 16:20 UTC (34 minutes ago):

EKRK 161620Z AUTO 27011KT 9999 -RA OVC033/// 09/05 Q1016

Aviation forecast (TAF) for Copenhagen Roskilde Airport

Forecast is more than 12 hours old.

Retrieved 2020/10/13 06:33 UTC (1 year ago):

TAF EKRK 130526Z 1306/1415 09004KT 0200 FG VV001 TEMPO 1306/1307 6000 NSW NSC BECMG 1307/1309 9999 NSW FEW020